sensor_id;sensor_type;location;lat;lon;timestamp;P1;durP1;ratioP1;P2;durP2;ratioP2
5752;SDS011;2901;42.140;24.760;2023-06-22T00:01:21;18.10;;;13.00;;
5752;SDS011;2901;42.140;24.760;2023-06-22T00:03:49;14.63;;;13.32;;
5752;SDS011;2901;42.140;24.760;2023-06-22T00:06:15;15.00;;;13.68;;
5752;SDS011;2901;42.140;24.760;2023-06-22T00:08:41;16.90;;;13.50;;
5752;SDS011;2901;42.140;24.760;2023-06-22T00:11:06;14.05;;;12.82;;
5752;SDS011;2901;42.140;24.760;2023-06-22T00:13:31;13.88;;;12.68;;
5752;SDS011;2901;42.140;24.760;2023-06-22T00:15:57;13.27;;;12.10;;
5752;SDS011;2901;42.140;24.760;2023-06-22T00:18:22;12.10;;;11.02;;
5752;SDS011;2901;42.140;24.760;2023-06-22T00:20:52;11.93;;;10.45;;
5752;SDS011;2901;42.140;24.760;2023-06-22T00:23:21;11.10;;;10.40;;
5752;SDS011;2901;42.140;24.760;2023-06-22T00:25:48;11.13;;;10.07;;
5752;SDS011;2901;42.140;24.760;2023-06-22T00:28:14;11.93;;;10.73;;
5752;SDS011;2901;42.140;24.760;2023-06-22T00:30:40;10.20;;;9.60;;
5752;SDS011;2901;42.140;24.760;2023-06-22T00:33:05;10.63;;;9.73;;
5752;SDS011;2901;42.140;24.760;2023-06-22T00:35:32;10.93;;;10.05;;
5752;SDS011;2901;42.140;24.760;2023-06-22T00:37:59;10.43;;;9.63;;
5752;SDS011;2901;42.140;24.760;2023-06-22T00:40:28;11.73;;;11.00;;
5752;SDS011;2901;42.140;24.760;2023-06-22T00:42:53;11.88;;;10.88;;
5752;SDS011;2901;42.140;24.760;2023-06-22T00:45:19;11.50;;;10.40;;
5752;SDS011;2901;42.140;24.760;2023-06-22T00:47:45;12.48;;;10.68;;
5752;SDS011;2901;42.140;24.760;2023-06-22T00:50:11;12.40;;;11.32;;
5752;SDS011;2901;42.140;24.760;2023-06-22T00:52:43;11.93;;;10.75;;
5752;SDS011;2901;42.140;24.760;2023-06-22T00:55:09;10.95;;;10.18;;
5752;SDS011;2901;42.140;24.760;2023-06-22T00:57:35;11.68;;;10.77;;
5752;SDS011;2901;42.140;24.760;2023-06-22T01:00:02;11.70;;;10.75;;
5752;SDS011;2901;42.140;24.760;2023-06-22T01:02:31;11.00;;;10.27;;
5752;SDS011;2901;42.140;24.760;2023-06-22T01:04:57;11.75;;;10.68;;
5752;SDS011;2901;42.140;24.760;2023-06-22T01:07:35;10.77;;;9.82;;
5752;SDS011;2901;42.140;24.760;2023-06-22T01:10:08;11.60;;;10.48;;
5752;SDS011;2901;42.140;24.760;2023-06-22T01:12:54;12.80;;;10.05;;
5752;SDS011;2901;42.140;24.760;2023-06-22T01:15:30;11.27;;;10.38;;
5752;SDS011;2901;42.140;24.760;2023-06-22T01:18:03;11.50;;;10.35;;
5752;SDS011;2901;42.140;24.760;2023-06-22T01:20:29;11.02;;;10.25;;
5752;SDS011;2901;42.140;24.760;2023-06-22T01:25:50;11.18;;;10.43;;
5752;SDS011;2901;42.140;24.760;2023-06-22T01:28:43;12.38;;;10.82;;
5752;SDS011;2901;42.140;24.760;2023-06-22T01:31:09;11.73;;;10.70;;
5752;SDS011;2901;42.140;24.760;2023-06-22T01:33:37;12.98;;;11.75;;
5752;SDS011;2901;42.140;24.760;2023-06-22T01:36:06;13.52;;;12.27;;
5752;SDS011;2901;42.140;24.760;2023-06-22T01:38:32;13.77;;;12.48;;
5752;SDS011;2901;42.140;24.760;2023-06-22T01:40:58;14.38;;;12.93;;
5752;SDS011;2901;42.140;24.760;2023-06-22T01:43:25;13.52;;;12.50;;
5752;SDS011;2901;42.140;24.760;2023-06-22T01:45:52;13.10;;;11.93;;
5752;SDS011;2901;42.140;24.760;2023-06-22T01:48:19;12.68;;;11.73;;
5752;SDS011;2901;42.140;24.760;2023-06-22T01:50:44;12.23;;;11.52;;
5752;SDS011;2901;42.140;24.760;2023-06-22T01:53:10;12.60;;;11.90;;
5752;SDS011;2901;42.140;24.760;2023-06-22T01:55:36;13.82;;;12.85;;
5752;SDS011;2901;42.140;24.760;2023-06-22T01:58:01;12.43;;;11.35;;
5752;SDS011;2901;42.140;24.760;2023-06-22T02:00:26;18.05;;;13.02;;
5752;SDS011;2901;42.140;24.760;2023-06-22T02:02:58;12.10;;;11.35;;
5752;SDS011;2901;42.140;24.760;2023-06-22T02:05:47;11.18;;;10.38;;
5752;SDS011;2901;42.140;24.760;2023-06-22T02:08:19;11.63;;;10.40;;
5752;SDS011;2901;42.140;24.760;2023-06-22T02:10:48;11.48;;;10.88;;
5752;SDS011;2901;42.140;24.760;2023-06-22T02:13:14;9.93;;;9.43;;
5752;SDS011;2901;42.140;24.760;2023-06-22T02:15:40;10.25;;;9.75;;
5752;SDS011;2901;42.140;24.760;2023-06-22T02:18:07;11.60;;;10.75;;
5752;SDS011;2901;42.140;24.760;2023-06-22T02:20:32;11.05;;;10.13;;
5752;SDS011;2901;42.140;24.760;2023-06-22T02:23:01;11.63;;;10.82;;
5752;SDS011;2901;42.140;24.760;2023-06-22T02:25:26;11.65;;;10.45;;
5752;SDS011;2901;42.140;24.760;2023-06-22T02:27:51;11.95;;;11.27;;
5752;SDS011;2901;42.140;24.760;2023-06-22T02:30:17;11.63;;;10.82;;
5752;SDS011;2901;42.140;24.760;2023-06-22T02:32:42;12.48;;;11.27;;
5752;SDS011;2901;42.140;24.760;2023-06-22T02:35:11;11.30;;;10.75;;
5752;SDS011;2901;42.140;24.760;2023-06-22T02:37:37;11.93;;;11.35;;
5752;SDS011;2901;42.140;24.760;2023-06-22T02:40:07;11.73;;;11.13;;
5752;SDS011;2901;42.140;24.760;2023-06-22T02:42:34;12.68;;;11.75;;
5752;SDS011;2901;42.140;24.760;2023-06-22T02:44:59;11.10;;;10.45;;
5752;SDS011;2901;42.140;24.760;2023-06-22T02:47:25;11.63;;;10.95;;
5752;SDS011;2901;42.140;24.760;2023-06-22T02:49:50;11.30;;;10.48;;
5752;SDS011;2901;42.140;24.760;2023-06-22T02:52:16;11.32;;;10.63;;
5752;SDS011;2901;42.140;24.760;2023-06-22T02:54:42;11.50;;;10.52;;
5752;SDS011;2901;42.140;24.760;2023-06-22T02:57:10;10.32;;;9.63;;
5752;SDS011;2901;42.140;24.760;2023-06-22T02:59:38;11.90;;;11.20;;
5752;SDS011;2901;42.140;24.760;2023-06-22T03:02:05;11.48;;;10.60;;
5752;SDS011;2901;42.140;24.760;2023-06-22T03:04:31;10.60;;;9.88;;
5752;SDS011;2901;42.140;24.760;2023-06-22T03:06:57;11.02;;;10.43;;
5752;SDS011;2901;42.140;24.760;2023-06-22T03:09:26;11.25;;;10.43;;
5752;SDS011;2901;42.140;24.760;2023-06-22T03:11:55;10.60;;;10.05;;
5752;SDS011;2901;42.140;24.760;2023-06-22T03:14:20;10.27;;;9.63;;
5752;SDS011;2901;42.140;24.760;2023-06-22T03:16:46;11.60;;;10.05;;
5752;SDS011;2901;42.140;24.760;2023-06-22T03:19:11;10.48;;;9.77;;
5752;SDS011;2901;42.140;24.760;2023-06-22T03:21:37;10.07;;;9.48;;
5752;SDS011;2901;42.140;24.760;2023-06-22T03:24:03;11.10;;;10.20;;
5752;SDS011;2901;42.140;24.760;2023-06-22T03:26:30;8.95;;;8.55;;
5752;SDS011;2901;42.140;24.760;2023-06-22T03:28:55;9.05;;;8.65;;
5752;SDS011;2901;42.140;24.760;2023-06-22T03:31:20;9.60;;;8.93;;
5752;SDS011;2901;42.140;24.760;2023-06-22T03:33:47;8.85;;;8.20;;
5752;SDS011;2901;42.140;24.760;2023-06-22T03:36:14;9.95;;;9.10;;
5752;SDS011;2901;42.140;24.760;2023-06-22T03:38:41;9.20;;;8.63;;
5752;SDS011;2901;42.140;24.760;2023-06-22T03:41:06;9.32;;;8.63;;
5752;SDS011;2901;42.140;24.760;2023-06-22T03:43:32;10.38;;;9.45;;
5752;SDS011;2901;42.140;24.760;2023-06-22T03:45:57;10.25;;;9.75;;
5752;SDS011;2901;42.140;24.760;2023-06-22T03:48:23;10.30;;;9.68;;
5752;SDS011;2901;42.140;24.760;2023-06-22T03:50:48;11.30;;;10.00;;
5752;SDS011;2901;42.140;24.760;2023-06-22T03:53:13;13.32;;;10.35;;
5752;SDS011;2901;42.140;24.760;2023-06-22T03:55:42;10.15;;;9.60;;
5752;SDS011;2901;42.140;24.760;2023-06-22T03:58:14;10.25;;;9.50;;
5752;SDS011;2901;42.140;24.760;2023-06-22T04:00:39;10.23;;;9.65;;
5752;SDS011;2901;42.140;24.760;2023-06-22T04:03:05;11.50;;;10.57;;
5752;SDS011;2901;42.140;24.760;2023-06-22T04:05:32;11.55;;;10.55;;
5752;SDS011;2901;42.140;24.760;2023-06-22T04:07:57;10.95;;;10.25;;
5752;SDS011;2901;42.140;24.760;2023-06-22T04:10:23;11.23;;;10.10;;
5752;SDS011;2901;42.140;24.760;2023-06-22T04:12:48;10.38;;;9.73;;
5752;SDS011;2901;42.140;24.760;2023-06-22T04:15:14;10.65;;;9.98;;
5752;SDS011;2901;42.140;24.760;2023-06-22T04:17:39;11.13;;;10.18;;
5752;SDS011;2901;42.140;24.760;2023-06-22T04:20:05;10.52;;;9.75;;
5752;SDS011;2901;42.140;24.760;2023-06-22T04:22:31;9.82;;;9.32;;
5752;SDS011;2901;42.140;24.760;2023-06-22T04:24:56;9.45;;;8.85;;
5752;SDS011;2901;42.140;24.760;2023-06-22T04:27:22;9.63;;;9.13;;
5752;SDS011;2901;42.140;24.760;2023-06-22T04:29:48;8.82;;;8.43;;
5752;SDS011;2901;42.140;24.760;2023-06-22T04:32:16;10.27;;;9.57;;
5752;SDS011;2901;42.140;24.760;2023-06-22T04:34:42;10.43;;;9.77;;
5752;SDS011;2901;42.140;24.760;2023-06-22T04:37:08;9.43;;;8.93;;
5752;SDS011;2901;42.140;24.760;2023-06-22T04:39:34;10.13;;;9.18;;
5752;SDS011;2901;42.140;24.760;2023-06-22T04:41:59;12.05;;;9.60;;
5752;SDS011;2901;42.140;24.760;2023-06-22T04:44:25;10.38;;;9.35;;
5752;SDS011;2901;42.140;24.760;2023-06-22T04:46:52;10.85;;;9.75;;
5752;SDS011;2901;42.140;24.760;2023-06-22T04:49:22;10.52;;;9.60;;
5752;SDS011;2901;42.140;24.760;2023-06-22T04:51:48;9.77;;;9.07;;
5752;SDS011;2901;42.140;24.760;2023-06-22T04:54:16;12.57;;;8.93;;
5752;SDS011;2901;42.140;24.760;2023-06-22T04:56:42;10.18;;;9.60;;
5752;SDS011;2901;42.140;24.760;2023-06-22T04:59:07;10.30;;;9.27;;
5752;SDS011;2901;42.140;24.760;2023-06-22T05:01:33;11.30;;;10.50;;
5752;SDS011;2901;42.140;24.760;2023-06-22T05:04:00;11.30;;;10.25;;
5752;SDS011;2901;42.140;24.760;2023-06-22T05:06:26;9.73;;;9.13;;
5752;SDS011;2901;42.140;24.760;2023-06-22T05:08:56;11.63;;;10.32;;
5752;SDS011;2901;42.140;24.760;2023-06-22T05:11:27;11.13;;;10.18;;
5752;SDS011;2901;42.140;24.760;2023-06-22T05:13:53;10.50;;;9.90;;
5752;SDS011;2901;42.140;24.760;2023-06-22T05:16:20;10.32;;;9.48;;
5752;SDS011;2901;42.140;24.760;2023-06-22T05:18:52;9.73;;;9.10;;
5752;SDS011;2901;42.140;24.760;2023-06-22T05:21:21;10.55;;;9.88;;
5752;SDS011;2901;42.140;24.760;2023-06-22T05:23:48;10.93;;;9.88;;
5752;SDS011;2901;42.140;24.760;2023-06-22T05:26:13;10.90;;;10.00;;
5752;SDS011;2901;42.140;24.760;2023-06-22T05:28:39;10.90;;;10.05;;
5752;SDS011;2901;42.140;24.760;2023-06-22T05:31:04;14.23;;;10.05;;
5752;SDS011;2901;42.140;24.760;2023-06-22T05:33:30;10.20;;;9.48;;
5752;SDS011;2901;42.140;24.760;2023-06-22T05:35:55;10.95;;;10.10;;
5752;SDS011;2901;42.140;24.760;2023-06-22T05:38:20;17.63;;;10.43;;
5752;SDS011;2901;42.140;24.760;2023-06-22T05:40:46;10.02;;;9.43;;
5752;SDS011;2901;42.140;24.760;2023-06-22T05:43:11;11.15;;;10.00;;
5752;SDS011;2901;42.140;24.760;2023-06-22T05:45:37;10.38;;;9.80;;
5752;SDS011;2901;42.140;24.760;2023-06-22T05:48:02;10.13;;;9.63;;
5752;SDS011;2901;42.140;24.760;2023-06-22T05:50:28;11.18;;;10.43;;
5752;SDS011;2901;42.140;24.760;2023-06-22T05:52:53;10.60;;;9.77;;
5752;SDS011;2901;42.140;24.760;2023-06-22T05:55:18;9.52;;;8.70;;
5752;SDS011;2901;42.140;24.760;2023-06-22T05:57:44;8.68;;;8.02;;
5752;SDS011;2901;42.140;24.760;2023-06-22T06:00:11;9.80;;;9.13;;
5752;SDS011;2901;42.140;24.760;2023-06-22T06:02:37;8.82;;;8.43;;
5752;SDS011;2901;42.140;24.760;2023-06-22T06:05:08;9.88;;;9.15;;
5752;SDS011;2901;42.140;24.760;2023-06-22T06:07:35;9.50;;;8.82;;
5752;SDS011;2901;42.140;24.760;2023-06-22T06:10:00;8.82;;;8.32;;
5752;SDS011;2901;42.140;24.760;2023-06-22T06:12:25;8.70;;;7.95;;
5752;SDS011;2901;42.140;24.760;2023-06-22T06:14:51;8.80;;;8.00;;
5752;SDS011;2901;42.140;24.760;2023-06-22T06:17:18;7.85;;;7.55;;
5752;SDS011;2901;42.140;24.760;2023-06-22T06:19:43;8.43;;;7.70;;
5752;SDS011;2901;42.140;24.760;2023-06-22T06:22:09;9.55;;;8.20;;
5752;SDS011;2901;42.140;24.760;2023-06-22T06:24:34;10.52;;;8.45;;
5752;SDS011;2901;42.140;24.760;2023-06-22T06:26:59;8.73;;;8.02;;
5752;SDS011;2901;42.140;24.760;2023-06-22T06:29:25;8.35;;;7.88;;
5752;SDS011;2901;42.140;24.760;2023-06-22T06:31:50;9.05;;;8.43;;
5752;SDS011;2901;42.140;24.760;2023-06-22T06:34:15;8.10;;;7.38;;
5752;SDS011;2901;42.140;24.760;2023-06-22T06:36:41;8.10;;;7.60;;
5752;SDS011;2901;42.140;24.760;2023-06-22T06:39:07;8.50;;;7.90;;
5752;SDS011;2901;42.140;24.760;2023-06-22T06:41:33;8.63;;;7.93;;
5752;SDS011;2901;42.140;24.760;2023-06-22T06:43:59;8.27;;;7.70;;
5752;SDS011;2901;42.140;24.760;2023-06-22T06:46:25;9.15;;;8.20;;
5752;SDS011;2901;42.140;24.760;2023-06-22T06:48:50;9.07;;;8.45;;
5752;SDS011;2901;42.140;24.760;2023-06-22T06:51:16;7.60;;;7.30;;
5752;SDS011;2901;42.140;24.760;2023-06-22T06:53:41;9.05;;;7.97;;
5752;SDS011;2901;42.140;24.760;2023-06-22T06:56:06;8.13;;;7.75;;
5752;SDS011;2901;42.140;24.760;2023-06-22T06:58:33;8.63;;;7.82;;
5752;SDS011;2901;42.140;24.760;2023-06-22T07:00:58;8.30;;;7.82;;
5752;SDS011;2901;42.140;24.760;2023-06-22T07:03:24;7.30;;;7.00;;
5752;SDS011;2901;42.140;24.760;2023-06-22T07:05:49;7.47;;;7.10;;
5752;SDS011;2901;42.140;24.760;2023-06-22T07:08:15;7.82;;;7.38;;
5752;SDS011;2901;42.140;24.760;2023-06-22T07:10:40;8.02;;;7.47;;
5752;SDS011;2901;42.140;24.760;2023-06-22T07:13:05;7.82;;;7.18;;
5752;SDS011;2901;42.140;24.760;2023-06-22T07:15:31;8.38;;;7.75;;
5752;SDS011;2901;42.140;24.760;2023-06-22T07:17:56;8.32;;;7.43;;
5752;SDS011;2901;42.140;24.760;2023-06-22T07:20:21;8.52;;;7.78;;
5752;SDS011;2901;42.140;24.760;2023-06-22T07:22:47;8.25;;;7.47;;
5752;SDS011;2901;42.140;24.760;2023-06-22T07:25:12;12.45;;;7.65;;
5752;SDS011;2901;42.140;24.760;2023-06-22T07:30:13;8.02;;;7.35;;
5752;SDS011;2901;42.140;24.760;2023-06-22T07:32:39;8.35;;;7.53;;
5752;SDS011;2901;42.140;24.760;2023-06-22T07:35:05;7.25;;;6.93;;
5752;SDS011;2901;42.140;24.760;2023-06-22T07:37:31;9.02;;;7.60;;
5752;SDS011;2901;42.140;24.760;2023-06-22T07:39:58;8.63;;;7.80;;
5752;SDS011;2901;42.140;24.760;2023-06-22T07:42:24;8.18;;;7.68;;
5752;SDS011;2901;42.140;24.760;2023-06-22T07:44:50;7.78;;;7.20;;
5752;SDS011;2901;42.140;24.760;2023-06-22T07:47:16;6.88;;;6.57;;
5752;SDS011;2901;42.140;24.760;2023-06-22T07:49:43;7.50;;;6.78;;
5752;SDS011;2901;42.140;24.760;2023-06-22T07:52:08;6.43;;;6.13;;
5752;SDS011;2901;42.140;24.760;2023-06-22T07:54:34;6.45;;;6.15;;
5752;SDS011;2901;42.140;24.760;2023-06-22T07:56:59;7.80;;;7.15;;
5752;SDS011;2901;42.140;24.760;2023-06-22T07:59:25;8.82;;;6.32;;
5752;SDS011;2901;42.140;24.760;2023-06-22T08:01:50;9.23;;;6.88;;
5752;SDS011;2901;42.140;24.760;2023-06-22T08:04:16;6.68;;;6.20;;
5752;SDS011;2901;42.140;24.760;2023-06-22T08:06:41;6.53;;;5.95;;
5752;SDS011;2901;42.140;24.760;2023-06-22T08:09:07;7.60;;;6.82;;
5752;SDS011;2901;42.140;24.760;2023-06-22T08:11:32;6.70;;;6.00;;
5752;SDS011;2901;42.140;24.760;2023-06-22T08:13:58;6.35;;;5.72;;
5752;SDS011;2901;42.140;24.760;2023-06-22T08:16:24;6.60;;;6.20;;
5752;SDS011;2901;42.140;24.760;2023-06-22T08:18:50;6.20;;;5.85;;
5752;SDS011;2901;42.140;24.760;2023-06-22T08:21:15;7.68;;;6.10;;
5752;SDS011;2901;42.140;24.760;2023-06-22T08:23:40;9.60;;;6.03;;
5752;SDS011;2901;42.140;24.760;2023-06-22T08:26:06;5.70;;;5.50;;
5752;SDS011;2901;42.140;24.760;2023-06-22T08:28:31;6.45;;;6.15;;
5752;SDS011;2901;42.140;24.760;2023-06-22T08:30:57;6.03;;;5.80;;
5752;SDS011;2901;42.140;24.760;2023-06-22T08:33:23;6.15;;;5.70;;
5752;SDS011;2901;42.140;24.760;2023-06-22T08:35:53;9.00;;;7.10;;
5752;SDS011;2901;42.140;24.760;2023-06-22T08:38:20;5.95;;;5.50;;
5752;SDS011;2901;42.140;24.760;2023-06-22T08:40:45;5.88;;;5.68;;
5752;SDS011;2901;42.140;24.760;2023-06-22T08:43:11;6.68;;;6.22;;
5752;SDS011;2901;42.140;24.760;2023-06-22T08:45:36;5.50;;;5.20;;
5752;SDS011;2901;42.140;24.760;2023-06-22T08:48:02;6.10;;;5.80;;
5752;SDS011;2901;42.140;24.760;2023-06-22T08:50:27;11.27;;;10.43;;
5752;SDS011;2901;42.140;24.760;2023-06-22T08:52:52;7.00;;;6.43;;
5752;SDS011;2901;42.140;24.760;2023-06-22T08:55:18;6.65;;;6.40;;
5752;SDS011;2901;42.140;24.760;2023-06-22T08:57:43;6.88;;;6.47;;
5752;SDS011;2901;42.140;24.760;2023-06-22T09:00:09;6.28;;;5.88;;
5752;SDS011;2901;42.140;24.760;2023-06-22T09:02:45;6.25;;;5.82;;
5752;SDS011;2901;42.140;24.760;2023-06-22T09:05:11;5.97;;;5.57;;
5752;SDS011;2901;42.140;24.760;2023-06-22T09:07:37;10.95;;;6.40;;
5752;SDS011;2901;42.140;24.760;2023-06-22T09:10:03;7.53;;;6.32;;
5752;SDS011;2901;42.140;24.760;2023-06-22T09:12:32;5.78;;;5.47;;
5752;SDS011;2901;42.140;24.760;2023-06-22T09:14:59;5.95;;;5.65;;
5752;SDS011;2901;42.140;24.760;2023-06-22T09:17:28;8.55;;;6.80;;
5752;SDS011;2901;42.140;24.760;2023-06-22T09:19:54;5.22;;;5.03;;
5752;SDS011;2901;42.140;24.760;2023-06-22T09:22:19;6.47;;;5.65;;
5752;SDS011;2901;42.140;24.760;2023-06-22T09:24:44;7.45;;;6.88;;
5752;SDS011;2901;42.140;24.760;2023-06-22T09:27:10;6.45;;;5.82;;
5752;SDS011;2901;42.140;24.760;2023-06-22T09:29:35;6.35;;;6.03;;
5752;SDS011;2901;42.140;24.760;2023-06-22T09:32:01;6.00;;;5.47;;
5752;SDS011;2901;42.140;24.760;2023-06-22T09:34:26;9.93;;;7.55;;
5752;SDS011;2901;42.140;24.760;2023-06-22T09:36:52;5.10;;;4.90;;
5752;SDS011;2901;42.140;24.760;2023-06-22T09:39:17;6.78;;;6.28;;
5752;SDS011;2901;42.140;24.760;2023-06-22T09:41:43;5.55;;;5.13;;
5752;SDS011;2901;42.140;24.760;2023-06-22T09:44:09;5.70;;;5.38;;
5752;SDS011;2901;42.140;24.760;2023-06-22T09:46:34;5.82;;;5.47;;
5752;SDS011;2901;42.140;24.760;2023-06-22T09:49:00;7.38;;;6.13;;
5752;SDS011;2901;42.140;24.760;2023-06-22T09:51:25;7.57;;;5.75;;
5752;SDS011;2901;42.140;24.760;2023-06-22T09:53:51;7.47;;;7.00;;
5752;SDS011;2901;42.140;24.760;2023-06-22T09:56:17;8.75;;;5.93;;
5752;SDS011;2901;42.140;24.760;2023-06-22T09:58:42;6.13;;;5.68;;
5752;SDS011;2901;42.140;24.760;2023-06-22T10:01:09;5.20;;;5.00;;
5752;SDS011;2901;42.140;24.760;2023-06-22T10:03:35;5.30;;;5.10;;
5752;SDS011;2901;42.140;24.760;2023-06-22T10:06:01;5.88;;;5.60;;
5752;SDS011;2901;42.140;24.760;2023-06-22T10:08:26;6.07;;;5.75;;
5752;SDS011;2901;42.140;24.760;2023-06-22T10:10:52;5.85;;;5.55;;
5752;SDS011;2901;42.140;24.760;2023-06-22T10:13:17;6.30;;;5.88;;
5752;SDS011;2901;42.140;24.760;2023-06-22T10:15:43;5.55;;;5.20;;
5752;SDS011;2901;42.140;24.760;2023-06-22T10:18:14;5.90;;;5.60;;
5752;SDS011;2901;42.140;24.760;2023-06-22T10:20:43;6.07;;;5.88;;
5752;SDS011;2901;42.140;24.760;2023-06-22T10:23:09;6.05;;;5.63;;
5752;SDS011;2901;42.140;24.760;2023-06-22T10:25:34;7.88;;;5.75;;
5752;SDS011;2901;42.140;24.760;2023-06-22T10:27:59;9.98;;;5.80;;
5752;SDS011;2901;42.140;24.760;2023-06-22T10:30:25;5.55;;;5.35;;
5752;SDS011;2901;42.140;24.760;2023-06-22T10:32:50;6.65;;;6.25;;
5752;SDS011;2901;42.140;24.760;2023-06-22T10:35:16;5.53;;;5.15;;
5752;SDS011;2901;42.140;24.760;2023-06-22T10:37:44;12.43;;;5.70;;
5752;SDS011;2901;42.140;24.760;2023-06-22T10:40:14;5.75;;;5.25;;
5752;SDS011;2901;42.140;24.760;2023-06-22T10:42:40;5.93;;;5.63;;
5752;SDS011;2901;42.140;24.760;2023-06-22T10:45:06;6.65;;;6.10;;
5752;SDS011;2901;42.140;24.760;2023-06-22T10:47:33;5.47;;;5.18;;
5752;SDS011;2901;42.140;24.760;2023-06-22T10:49:59;5.97;;;5.68;;
5752;SDS011;2901;42.140;24.760;2023-06-22T10:52:24;6.00;;;5.70;;
5752;SDS011;2901;42.140;24.760;2023-06-22T10:54:49;6.22;;;5.57;;
5752;SDS011;2901;42.140;24.760;2023-06-22T10:57:15;5.75;;;5.45;;
5752;SDS011;2901;42.140;24.760;2023-06-22T10:59:40;7.28;;;5.72;;
5752;SDS011;2901;42.140;24.760;2023-06-22T11:02:06;6.18;;;5.97;;
5752;SDS011;2901;42.140;24.760;2023-06-22T11:04:31;5.82;;;5.28;;
5752;SDS011;2901;42.140;24.760;2023-06-22T11:06:56;6.18;;;5.82;;
5752;SDS011;2901;42.140;24.760;2023-06-22T11:09:22;5.88;;;5.47;;
5752;SDS011;2901;42.140;24.760;2023-06-22T11:11:48;6.38;;;5.88;;
5752;SDS011;2901;42.140;24.760;2023-06-22T11:14:15;5.40;;;5.20;;
5752;SDS011;2901;42.140;24.760;2023-06-22T11:16:41;5.82;;;5.63;;
5752;SDS011;2901;42.140;24.760;2023-06-22T11:19:06;5.55;;;5.25;;
5752;SDS011;2901;42.140;24.760;2023-06-22T11:21:32;5.72;;;5.47;;
5752;SDS011;2901;42.140;24.760;2023-06-22T11:23:58;5.95;;;5.55;;
5752;SDS011;2901;42.140;24.760;2023-06-22T11:26:24;5.88;;;5.50;;
5752;SDS011;2901;42.140;24.760;2023-06-22T11:28:52;6.70;;;5.97;;
5752;SDS011;2901;42.140;24.760;2023-06-22T11:31:18;5.65;;;5.38;;
5752;SDS011;2901;42.140;24.760;2023-06-22T11:33:43;5.97;;;5.57;;
5752;SDS011;2901;42.140;24.760;2023-06-22T11:36:10;5.90;;;5.60;;
5752;SDS011;2901;42.140;24.760;2023-06-22T11:38:36;5.40;;;5.20;;
5752;SDS011;2901;42.140;24.760;2023-06-22T11:41:05;5.78;;;5.50;;
5752;SDS011;2901;42.140;24.760;2023-06-22T11:43:31;5.88;;;5.68;;
5752;SDS011;2901;42.140;24.760;2023-06-22T11:45:56;5.80;;;5.60;;
5752;SDS011;2901;42.140;24.760;2023-06-22T11:48:23;6.32;;;5.85;;
5752;SDS011;2901;42.140;24.760;2023-06-22T11:50:49;5.32;;;5.13;;
5752;SDS011;2901;42.140;24.760;2023-06-22T11:53:15;5.63;;;5.40;;
5752;SDS011;2901;42.140;24.760;2023-06-22T11:55:44;6.63;;;5.93;;
5752;SDS011;2901;42.140;24.760;2023-06-22T11:58:09;5.65;;;5.45;;
5752;SDS011;2901;42.140;24.760;2023-06-22T12:00:36;6.05;;;5.75;;
5752;SDS011;2901;42.140;24.760;2023-06-22T12:03:02;5.85;;;5.65;;
5752;SDS011;2901;42.140;24.760;2023-06-22T12:05:27;5.57;;;5.20;;
5752;SDS011;2901;42.140;24.760;2023-06-22T12:07:53;5.90;;;5.60;;
5752;SDS011;2901;42.140;24.760;2023-06-22T12:10:19;5.65;;;5.35;;
5752;SDS011;2901;42.140;24.760;2023-06-22T12:12:45;5.78;;;5.40;;
5752;SDS011;2901;42.140;24.760;2023-06-22T12:15:10;5.40;;;5.05;;
5752;SDS011;2901;42.140;24.760;2023-06-22T12:17:36;6.63;;;6.18;;
5752;SDS011;2901;42.140;24.760;2023-06-22T12:20:02;6.07;;;5.88;;
5752;SDS011;2901;42.140;24.760;2023-06-22T12:22:30;7.30;;;5.70;;
5752;SDS011;2901;42.140;24.760;2023-06-22T12:24:57;7.38;;;5.90;;
5752;SDS011;2901;42.140;24.760;2023-06-22T12:27:22;6.03;;;5.50;;
5752;SDS011;2901;42.140;24.760;2023-06-22T12:29:48;7.57;;;7.18;;
5752;SDS011;2901;42.140;24.760;2023-06-22T12:32:13;5.65;;;5.22;;
5752;SDS011;2901;42.140;24.760;2023-06-22T12:34:41;5.82;;;5.60;;
5752;SDS011;2901;42.140;24.760;2023-06-22T12:37:08;6.95;;;6.47;;
5752;SDS011;2901;42.140;24.760;2023-06-22T12:39:33;7.00;;;6.45;;
5752;SDS011;2901;42.140;24.760;2023-06-22T12:41:59;7.18;;;6.53;;
5752;SDS011;2901;42.140;24.760;2023-06-22T12:44:24;6.63;;;6.13;;
5752;SDS011;2901;42.140;24.760;2023-06-22T12:46:50;6.97;;;6.28;;
5752;SDS011;2901;42.140;24.760;2023-06-22T12:49:15;6.88;;;6.57;;
5752;SDS011;2901;42.140;24.760;2023-06-22T12:51:41;8.90;;;7.65;;
5752;SDS011;2901;42.140;24.760;2023-06-22T12:54:07;6.15;;;5.85;;
5752;SDS011;2901;42.140;24.760;2023-06-22T12:56:33;8.70;;;6.10;;
5752;SDS011;2901;42.140;24.760;2023-06-22T12:58:59;6.47;;;5.75;;
5752;SDS011;2901;42.140;24.760;2023-06-22T13:01:27;5.32;;;5.13;;
5752;SDS011;2901;42.140;24.760;2023-06-22T13:03:53;6.05;;;5.85;;
5752;SDS011;2901;42.140;24.760;2023-06-22T13:06:19;6.13;;;5.82;;
5752;SDS011;2901;42.140;24.760;2023-06-22T13:08:44;6.38;;;6.07;;
5752;SDS011;2901;42.140;24.760;2023-06-22T13:11:10;5.93;;;5.60;;
5752;SDS011;2901;42.140;24.760;2023-06-22T13:13:35;6.18;;;5.78;;
5752;SDS011;2901;42.140;24.760;2023-06-22T13:16:01;6.72;;;6.32;;
5752;SDS011;2901;42.140;24.760;2023-06-22T13:18:26;6.15;;;5.90;;
5752;SDS011;2901;42.140;24.760;2023-06-22T13:20:51;6.30;;;5.90;;
5752;SDS011;2901;42.140;24.760;2023-06-22T13:23:19;6.15;;;5.85;;
5752;SDS011;2901;42.140;24.760;2023-06-22T13:25:45;6.20;;;5.82;;
5752;SDS011;2901;42.140;24.760;2023-06-22T13:28:10;6.50;;;6.20;;
5752;SDS011;2901;42.140;24.760;2023-06-22T13:30:38;6.13;;;5.93;;
5752;SDS011;2901;42.140;24.760;2023-06-22T13:33:04;7.22;;;6.57;;
5752;SDS011;2901;42.140;24.760;2023-06-22T13:35:29;8.43;;;6.20;;
5752;SDS011;2901;42.140;24.760;2023-06-22T13:37:55;5.88;;;5.65;;
5752;SDS011;2901;42.140;24.760;2023-06-22T13:40:20;6.80;;;6.40;;
5752;SDS011;2901;42.140;24.760;2023-06-22T13:42:45;6.20;;;5.75;;
5752;SDS011;2901;42.140;24.760;2023-06-22T13:45:11;5.78;;;5.57;;
5752;SDS011;2901;42.140;24.760;2023-06-22T13:47:36;14.68;;;11.93;;
5752;SDS011;2901;42.140;24.760;2023-06-22T13:50:02;7.78;;;7.28;;
5752;SDS011;2901;42.140;24.760;2023-06-22T13:52:28;8.20;;;7.60;;
5752;SDS011;2901;42.140;24.760;2023-06-22T13:54:53;6.75;;;6.25;;
5752;SDS011;2901;42.140;24.760;2023-06-22T13:57:18;8.13;;;7.13;;
5752;SDS011;2901;42.140;24.760;2023-06-22T13:59:44;6.57;;;6.03;;
5752;SDS011;2901;42.140;24.760;2023-06-22T14:02:09;7.78;;;6.78;;
5752;SDS011;2901;42.140;24.760;2023-06-22T14:04:34;6.70;;;6.25;;
5752;SDS011;2901;42.140;24.760;2023-06-22T14:07:00;6.45;;;6.05;;
5752;SDS011;2901;42.140;24.760;2023-06-22T14:09:25;7.30;;;6.65;;
5752;SDS011;2901;42.140;24.760;2023-06-22T14:11:51;6.90;;;6.40;;
5752;SDS011;2901;42.140;24.760;2023-06-22T14:14:16;6.50;;;5.85;;
5752;SDS011;2901;42.140;24.760;2023-06-22T14:16:41;6.78;;;6.22;;
5752;SDS011;2901;42.140;24.760;2023-06-22T14:19:07;6.40;;;5.97;;
5752;SDS011;2901;42.140;24.760;2023-06-22T14:21:32;8.30;;;6.40;;
5752;SDS011;2901;42.140;24.760;2023-06-22T14:23:57;6.97;;;6.43;;
5752;SDS011;2901;42.140;24.760;2023-06-22T14:26:23;7.63;;;7.05;;
5752;SDS011;2901;42.140;24.760;2023-06-22T14:28:48;8.95;;;7.13;;
5752;SDS011;2901;42.140;24.760;2023-06-22T14:31:18;9.05;;;8.23;;
5752;SDS011;2901;42.140;24.760;2023-06-22T14:33:48;6.93;;;6.55;;
5752;SDS011;2901;42.140;24.760;2023-06-22T14:36:17;7.10;;;6.70;;
5752;SDS011;2901;42.140;24.760;2023-06-22T14:38:42;9.65;;;7.53;;
5752;SDS011;2901;42.140;24.760;2023-06-22T14:41:08;7.35;;;6.95;;
5752;SDS011;2901;42.140;24.760;2023-06-22T14:43:34;8.02;;;7.55;;
5752;SDS011;2901;42.140;24.760;2023-06-22T14:45:59;10.13;;;9.15;;
5752;SDS011;2901;42.140;24.760;2023-06-22T14:48:25;8.10;;;7.50;;
5752;SDS011;2901;42.140;24.760;2023-06-22T14:50:51;7.22;;;6.93;;
5752;SDS011;2901;42.140;24.760;2023-06-22T14:53:16;8.00;;;7.45;;